Time;durP1;ratioP1;P1;durP2;ratioP2;P2;SDS_P1;SDS_P2;PMS_P1;PMS_P2;Temp;Humidity;BMP_temperature;BMP_pressure;BME280_temperature;BME280_humidity;BME280_pressure;Samples;Min_cycle;Max_cycle;Signal;HPM_P1;HPM_P2
2021/08/22 00:01:22;;;;;;;10.77;9.83;;;20.40;99.90;;;;;;4936941;29;20450;-84
2021/08/22 00:03:49;;;;;;;8.30;7.60;;;20.50;99.90;;;;;;4937689;29;20489;-85
2021/08/22 00:06:15;;;;;;;9.13;8.33;;;20.50;99.90;;;;;;4937144;29;20453;-84
2021/08/22 00:08:44;;;;;;;9.07;8.27;;;20.60;99.90;;;;;;4937082;29;20465;-84
2021/08/22 00:11:10;;;;;;;9.73;7.73;;;20.50;99.90;;;;;;4936994;29;20453;-84
2021/08/22 00:13:38;;;;;;;9.10;8.33;;;20.50;99.90;;;;;;4936422;29;20549;-84
2021/08/22 00:16:07;;;;;;;9.40;8.47;;;20.50;99.90;;;;;;4936730;29;20653;-84
2021/08/22 00:18:34;;;;;;;10.20;9.30;;;20.60;99.90;;;;;;4936482;29;20489;-84
2021/08/22 00:21:00;;;;;;;9.23;8.53;;;20.70;99.90;;;;;;4936650;29;20454;-84
2021/08/22 00:23:31;;;;;;;10.30;9.33;;;20.60;99.90;;;;;;4935986;29;20468;-84
2021/08/22 00:25:58;;;;;;;9.70;8.80;;;20.00;99.90;;;;;;4936770;29;20461;-84
2021/08/22 00:28:25;;;;;;;7.83;7.13;;;19.60;99.90;;;;;;4941201;29;20867;-85
2021/08/22 00:30:52;;;;;;;5.80;5.30;;;19.20;99.90;;;;;;4949312;29;20458;-86
2021/08/22 00:33:20;;;;;;;5.90;4.83;;;18.50;99.90;;;;;;4951895;29;20548;-86
2021/08/22 00:35:47;;;;;;;4.33;3.93;;;18.10;99.90;;;;;;4945306;29;20452;-89
2021/08/22 00:38:52;;;;;;;5.40;4.90;;;18.00;99.90;;;;;;4937638;29;20476;-91
2021/08/22 00:41:19;;;;;;;4.33;3.50;;;17.70;99.90;;;;;;4936905;29;20552;-89
2021/08/22 00:43:46;;;;;;;4.60;3.33;;;17.60;99.90;;;;;;4937019;29;21023;-88
2021/08/22 00:46:13;;;;;;;5.60;3.60;;;17.40;99.90;;;;;;4941933;29;20947;-86
2021/08/22 00:48:42;;;;;;;3.17;2.87;;;17.10;99.90;;;;;;4938443;29;20463;-84
2021/08/22 00:51:09;;;;;;;3.23;3.03;;;16.90;99.90;;;;;;4937413;29;20460;-85
2021/08/22 00:53:38;;;;;;;4.80;3.50;;;16.70;99.90;;;;;;4935757;29;20464;-86
2021/08/22 00:56:06;;;;;;;3.30;2.97;;;16.60;99.90;;;;;;4936539;29;20462;-85
2021/08/22 00:58:33;;;;;;;4.60;3.53;;;16.60;99.90;;;;;;4936156;29;20484;-86
2021/08/22 01:01:00;;;;;;;3.70;3.40;;;16.60;99.90;;;;;;4937079;29;20463;-86
2021/08/22 01:03:40;;;;;;;5.27;4.77;;;16.50;99.90;;;;;;4938205;29;20955;-86
2021/08/22 01:06:17;;;;;;;4.73;3.90;;;16.40;99.90;;;;;;4936718;29;20478;-86
2021/08/22 01:08:54;;;;;;;5.37;4.47;;;16.50;99.90;;;;;;4937955;29;20458;-86
2021/08/22 01:11:25;;;;;;;4.60;4.20;;;16.50;99.90;;;;;;4937686;29;20463;-87
2021/08/22 01:13:57;;;;;;;3.97;3.60;;;16.50;99.90;;;;;;4939318;29;20459;-86
2021/08/22 01:16:27;;;;;;;4.20;3.77;;;16.50;99.90;;;;;;4938648;29;20463;-86
2021/08/22 01:18:58;;;;;;;4.70;4.37;;;16.50;99.90;;;;;;4938609;29;20467;-86
2021/08/22 01:21:27;;;;;;;6.20;5.20;;;16.60;99.90;;;;;;4938190;29;21067;-86
2021/08/22 01:23:57;;;;;;;6.33;5.10;;;16.60;99.90;;;;;;4938958;29;20488;-87
2021/08/22 01:26:27;;;;;;;4.77;4.37;;;16.70;99.90;;;;;;4938191;29;20459;-86
2021/08/22 01:28:54;;;;;;;5.50;5.00;;;16.80;99.90;;;;;;4937250;29;20960;-87
2021/08/22 01:31:25;;;;;;;5.53;5.00;;;16.90;99.90;;;;;;4936471;29;20460;-87
2021/08/22 01:33:55;;;;;;;5.30;4.83;;;17.10;99.90;;;;;;4937174;29;20462;-87
2021/08/22 01:36:22;;;;;;;5.50;5.03;;;17.10;99.90;;;;;;4937242;29;20457;-87
2021/08/22 01:38:50;;;;;;;5.97;5.37;;;17.20;99.90;;;;;;4938073;29;20460;-87
2021/08/22 01:41:18;;;;;;;5.70;4.80;;;17.30;99.90;;;;;;4938027;29;20463;-86
2021/08/22 01:43:46;;;;;;;5.30;4.80;;;17.40;99.90;;;;;;4937213;29;20466;-86
2021/08/22 01:46:13;;;;;;;5.80;4.83;;;17.50;99.90;;;;;;4940168;29;20439;-86
2021/08/22 01:48:41;;;;;;;5.70;4.70;;;17.50;99.90;;;;;;4940692;29;20959;-86
2021/08/22 01:51:09;;;;;;;6.07;5.37;;;17.60;99.90;;;;;;4939683;29;20461;-86
2021/08/22 01:53:37;;;;;;;6.70;5.37;;;17.60;99.90;;;;;;4938045;29;20464;-86
2021/08/22 01:56:04;;;;;;;6.03;5.37;;;17.60;99.90;;;;;;4939054;29;20957;-86
2021/08/22 01:58:31;;;;;;;6.87;6.27;;;17.60;99.90;;;;;;4939543;29;20485;-87
2021/08/22 02:00:58;;;;;;;7.37;6.53;;;17.60;99.90;;;;;;4939197;29;20459;-87
2021/08/22 02:03:35;;;;;;;5.60;4.77;;;17.60;99.90;;;;;;4938360;29;20467;-86
2021/08/22 02:06:07;;;;;;;6.30;5.80;;;17.70;99.90;;;;;;4938316;29;20865;-86
2021/08/22 02:08:36;;;;;;;6.50;5.67;;;17.70;99.90;;;;;;4936505;29;20477;-87
2021/08/22 02:11:11;;;;;;;6.63;6.03;;;17.70;99.90;;;;;;4936209;29;20468;-86
2021/08/22 02:13:41;;;;;;;10.43;5.73;;;17.70;99.90;;;;;;4935029;29;20458;-86
2021/08/22 02:16:10;;;;;;;5.10;4.60;;;17.70;99.90;;;;;;4936384;29;20449;-86
2021/08/22 02:18:38;;;;;;;4.97;4.20;;;17.80;99.90;;;;;;4936308;29;20480;-87
2021/08/22 02:21:06;;;;;;;5.93;5.43;;;17.80;99.90;;;;;;4936635;29;20456;-86
2021/08/22 02:23:35;;;;;;;5.77;5.20;;;17.80;99.90;;;;;;4936413;29;20460;-87
2021/08/22 02:26:02;;;;;;;5.80;5.20;;;17.80;99.90;;;;;;4936650;29;20499;-87
2021/08/22 02:28:31;;;;;;;7.07;4.97;;;17.80;99.90;;;;;;4936563;29;20853;-86
2021/08/22 02:30:57;;;;;;;7.93;4.93;;;17.90;99.90;;;;;;4936878;29;20494;-86
2021/08/22 02:33:24;;;;;;;6.00;5.33;;;17.90;99.90;;;;;;4937061;29;20800;-87
2021/08/22 02:35:51;;;;;;;7.20;5.40;;;17.90;99.90;;;;;;4937929;29;20879;-87
2021/08/22 02:38:18;;;;;;;5.33;4.83;;;17.90;99.90;;;;;;4938141;29;20475;-87
2021/08/22 02:40:46;;;;;;;5.13;4.63;;;17.90;99.90;;;;;;4938980;29;20460;-86
2021/08/22 02:43:13;;;;;;;5.50;4.97;;;18.00;99.90;;;;;;4940129;29;20460;-87
2021/08/22 02:45:39;;;;;;;5.63;5.13;;;18.00;99.90;;;;;;4941701;29;20492;-87
2021/08/22 02:48:07;;;;;;;7.40;5.00;;;18.00;99.90;;;;;;4939091;29;21021;-86
2021/08/22 02:50:33;;;;;;;6.20;5.60;;;17.90;99.90;;;;;;4937098;29;20459;-86
2021/08/22 02:53:00;;;;;;;5.13;4.70;;;17.90;99.90;;;;;;4935941;29;20468;-86
2021/08/22 02:55:27;;;;;;;7.97;5.70;;;17.90;99.90;;;;;;4937567;29;20456;-86
2021/08/22 02:57:55;;;;;;;5.23;4.73;;;17.90;99.90;;;;;;4939063;29;20483;-86
2021/08/22 03:00:21;;;;;;;6.00;5.40;;;17.90;99.90;;;;;;4940376;29;20457;-86
2021/08/22 03:02:48;;;;;;;6.00;5.37;;;17.80;99.90;;;;;;4940037;29;20453;-87
2021/08/22 03:05:15;;;;;;;8.03;5.10;;;17.80;99.90;;;;;;4941952;29;20494;-87
2021/08/22 03:07:42;;;;;;;5.73;5.10;;;17.80;99.90;;;;;;4941125;29;20480;-86
2021/08/22 03:10:09;;;;;;;6.47;5.80;;;17.80;99.90;;;;;;4943338;29;20456;-86
2021/08/22 03:12:35;;;;;;;5.93;5.30;;;17.80;99.90;;;;;;4946377;29;20460;-86
2021/08/22 03:15:05;;;;;;;5.70;5.20;;;17.80;99.90;;;;;;4945959;29;20445;-86
2021/08/22 03:17:32;;;;;;;6.30;5.50;;;17.80;99.90;;;;;;4945459;29;20472;-86
2021/08/22 03:20:02;;;;;;;5.30;4.80;;;17.80;99.90;;;;;;4946500;29;20515;-86
2021/08/22 03:22:29;;;;;;;5.63;5.13;;;17.80;99.90;;;;;;4946570;29;20456;-86
2021/08/22 03:24:55;;;;;;;7.13;6.43;;;17.80;99.90;;;;;;4948533;29;20488;-86
2021/08/22 03:27:22;;;;;;;6.63;5.00;;;17.70;99.90;;;;;;4948484;29;20472;-86
2021/08/22 03:29:49;;;;;;;6.50;5.90;;;17.80;99.90;;;;;;4951625;29;20459;-86
2021/08/22 03:32:17;;;;;;;7.33;5.23;;;17.80;99.90;;;;;;4951382;29;20463;-87
2021/08/22 03:34:44;;;;;;;7.17;6.57;;;17.70;99.90;;;;;;4952421;29;20456;-86
2021/08/22 03:37:11;;;;;;;5.80;5.20;;;17.70;99.90;;;;;;4952494;29;20482;-86
2021/08/22 03:39:37;;;;;;;9.10;6.80;;;17.80;99.90;;;;;;4953384;29;20460;-86
2021/08/22 03:42:05;;;;;;;6.47;5.80;;;17.80;99.90;;;;;;4953638;29;20498;-86
2021/08/22 03:44:31;;;;;;;8.37;6.47;;;17.80;99.90;;;;;;4953942;29;20485;-86
2021/08/22 03:46:58;;;;;;;6.70;6.10;;;17.80;99.90;;;;;;4954153;29;20542;-86
2021/08/22 03:49:26;;;;;;;8.87;7.23;;;17.80;99.90;;;;;;4953100;29;20456;-86
2021/08/22 03:51:53;;;;;;;7.33;6.80;;;17.80;99.90;;;;;;4951616;29;20533;-86
2021/08/22 03:54:20;;;;;;;7.27;6.67;;;17.80;99.90;;;;;;4949836;29;20452;-86
2021/08/22 03:56:46;;;;;;;8.00;6.50;;;17.80;99.90;;;;;;4951721;29;20476;-86
2021/08/22 03:59:13;;;;;;;6.47;5.97;;;17.70;99.90;;;;;;4951552;29;20450;-86
2021/08/22 04:01:40;;;;;;;8.07;7.33;;;17.80;99.90;;;;;;4950579;29;20456;-86
2021/08/22 04:04:07;;;;;;;7.70;7.10;;;17.80;99.90;;;;;;4951089;29;20453;-87
2021/08/22 04:06:37;;;;;;;8.33;7.53;;;17.80;99.90;;;;;;4950832;29;20501;-86
2021/08/22 04:09:04;;;;;;;8.27;7.43;;;17.80;99.90;;;;;;4950128;29;20464;-86
2021/08/22 04:11:31;;;;;;;8.53;7.63;;;17.80;99.90;;;;;;4949702;29;20470;-86
2021/08/22 04:13:58;;;;;;;6.37;5.83;;;17.80;99.90;;;;;;4952348;29;20546;-86
2021/08/22 04:16:25;;;;;;;8.57;7.77;;;17.90;99.90;;;;;;4953192;29;20458;-86
2021/08/22 04:18:52;;;;;;;6.70;6.10;;;17.90;99.90;;;;;;4951467;29;20475;-86
2021/08/22 04:21:18;;;;;;;7.10;6.50;;;17.90;99.90;;;;;;4951250;29;20456;-86
2021/08/22 04:23:47;;;;;;;7.30;6.67;;;18.00;99.90;;;;;;4951857;29;20456;-86
2021/08/22 04:26:14;;;;;;;6.93;6.33;;;18.00;99.90;;;;;;4950703;29;20492;-86
2021/08/22 04:28:41;;;;;;;8.40;7.60;;;18.00;99.90;;;;;;4954008;29;20451;-85
2021/08/22 04:31:08;;;;;;;11.60;7.80;;;18.00;99.90;;;;;;4954816;29;20452;-85
2021/08/22 04:33:34;;;;;;;8.27;7.50;;;18.10;99.90;;;;;;4954187;29;20467;-85
2021/08/22 04:36:01;;;;;;;8.57;7.43;;;18.10;99.90;;;;;;4955066;29;20449;-85
2021/08/22 04:38:28;;;;;;;7.97;7.27;;;18.10;99.90;;;;;;4954193;29;20472;-85
2021/08/22 04:40:56;;;;;;;7.17;6.50;;;18.10;99.90;;;;;;4955269;29;20465;-85
2021/08/22 04:43:24;;;;;;;7.37;6.57;;;18.10;99.90;;;;;;4954706;29;20468;-85
2021/08/22 04:45:51;;;;;;;8.50;7.70;;;18.10;99.90;;;;;;4955288;29;20488;-86
2021/08/22 04:48:18;;;;;;;6.70;6.10;;;18.20;99.90;;;;;;4954832;29;20470;-85
2021/08/22 04:50:44;;;;;;;8.93;7.20;;;18.20;99.90;;;;;;4954804;29;20460;-85
2021/08/22 04:53:11;;;;;;;7.53;6.87;;;18.30;99.90;;;;;;4954406;29;20449;-85
2021/08/22 04:55:38;;;;;;;8.40;7.60;;;18.30;99.90;;;;;;4955569;29;21199;-85
2021/08/22 04:58:06;;;;;;;9.23;6.77;;;18.30;99.90;;;;;;4955829;29;20476;-85
2021/08/22 05:00:33;;;;;;;7.53;6.30;;;18.30;99.90;;;;;;4956084;29;21002;-85
2021/08/22 05:03:00;;;;;;;7.00;6.40;;;18.40;99.90;;;;;;4955149;29;20477;-85
2021/08/22 05:05:26;;;;;;;7.10;6.50;;;18.40;99.90;;;;;;4954319;29;20492;-86
2021/08/22 05:07:56;;;;;;;7.70;7.00;;;18.40;99.90;;;;;;4954132;29;20552;-86
2021/08/22 05:10:23;;;;;;;7.67;7.00;;;18.50;99.90;;;;;;4954057;28;20452;-86
2021/08/22 05:12:50;;;;;;;8.10;6.00;;;18.50;99.90;;;;;;4953338;29;20461;-86
2021/08/22 05:15:18;;;;;;;9.17;7.00;;;18.50;99.90;;;;;;4954335;29;20448;-86
2021/08/22 05:17:44;;;;;;;7.43;6.60;;;18.60;99.90;;;;;;4953743;29;20500;-86
2021/08/22 05:20:12;;;;;;;6.93;6.40;;;18.60;99.90;;;;;;4952798;29;20452;-86
2021/08/22 05:22:39;;;;;;;7.30;6.60;;;18.70;99.90;;;;;;4953056;29;20460;-85
2021/08/22 05:25:06;;;;;;;7.00;6.27;;;18.70;99.90;;;;;;4953859;29;20488;-86
2021/08/22 05:27:33;;;;;;;7.77;7.07;;;18.70;99.90;;;;;;4954464;29;20477;-86
2021/08/22 05:30:00;;;;;;;5.93;5.40;;;18.70;99.90;;;;;;4955983;29;20452;-85
2021/08/22 05:32:28;;;;;;;6.63;6.07;;;18.70;99.90;;;;;;4955759;29;20444;-85
2021/08/22 05:34:55;;;;;;;6.57;5.97;;;18.70;99.90;;;;;;4956210;29;20449;-85
2021/08/22 05:37:21;;;;;;;6.70;6.10;;;18.70;99.90;;;;;;4956103;29;20583;-86
2021/08/22 05:39:48;;;;;;;8.17;7.47;;;18.70;99.90;;;;;;4956012;29;20445;-85
2021/08/22 05:42:15;;;;;;;6.27;5.73;;;18.70;99.90;;;;;;4954240;29;20464;-86
2021/08/22 05:44:42;;;;;;;6.57;6.07;;;18.70;99.90;;;;;;4955139;29;20456;-86
2021/08/22 05:47:08;;;;;;;6.90;6.30;;;18.80;99.90;;;;;;4955090;29;20504;-86
2021/08/22 05:49:40;;;;;;;7.90;6.57;;;18.80;99.90;;;;;;4955684;29;20440;-85
2021/08/22 05:52:07;;;;;;;6.90;6.17;;;18.70;99.90;;;;;;4955765;29;20434;-85
2021/08/22 05:54:34;;;;;;;5.57;5.00;;;18.70;99.90;;;;;;4957367;29;20468;-85
2021/08/22 05:57:01;;;;;;;5.93;5.53;;;18.70;99.90;;;;;;4957434;29;20461;-85
2021/08/22 05:59:27;;;;;;;6.83;6.13;;;18.70;99.90;;;;;;4956769;29;20450;-86
2021/08/22 06:01:54;;;;;;;6.90;6.40;;;18.80;99.90;;;;;;4956027;29;20461;-85
2021/08/22 06:04:21;;;;;;;5.80;5.30;;;18.90;99.90;;;;;;4956271;29;20467;-85
2021/08/22 06:06:49;;;;;;;7.23;6.50;;;18.90;99.90;;;;;;4956266;29;20496;-85
2021/08/22 06:09:16;;;;;;;6.93;6.33;;;18.90;99.90;;;;;;4956905;29;20452;-85
2021/08/22 06:11:42;;;;;;;7.57;6.97;;;19.00;99.90;;;;;;4956855;29;20457;-84
2021/08/22 06:14:09;;;;;;;6.93;6.33;;;19.00;99.90;;;;;;4957178;29;20453;-85
2021/08/22 06:16:36;;;;;;;6.73;6.13;;;19.10;99.90;;;;;;4956484;29;20481;-85
2021/08/22 06:19:02;;;;;;;7.37;6.50;;;19.10;99.90;;;;;;4956956;29;20460;-85
2021/08/22 06:21:29;;;;;;;7.20;6.60;;;19.20;99.90;;;;;;4956315;29;20456;-85
2021/08/22 06:23:59;;;;;;;6.70;6.10;;;19.20;99.90;;;;;;4956298;29;20510;-85
2021/08/22 06:26:26;;;;;;;7.13;6.40;;;19.30;99.90;;;;;;4956157;29;20496;-85
2021/08/22 12:31:37;;;;;;;3.53;3.13;;;18.10;99.90;;;;;;4973537;28;20582;-86
2021/08/22 12:34:08;;;;;;;2.03;1.93;;;17.90;99.90;;;;;;4975500;28;20550;-85
2021/08/22 12:36:36;;;;;;;1.97;1.87;;;17.80;99.90;;;;;;4975169;28;20836;-86
2021/08/22 12:39:05;;;;;;;3.27;2.97;;;17.80;99.90;;;;;;4975668;28;20490;-86
2021/08/22 12:41:39;;;;;;;2.97;2.80;;;17.70;99.90;;;;;;4973412;28;20462;-84
2021/08/22 12:44:09;;;;;;;2.30;2.10;;;17.60;99.90;;;;;;4973105;28;20866;-85
2021/08/22 12:46:37;;;;;;;2.70;2.50;;;17.70;99.90;;;;;;4964074;28;20475;-85
2021/08/22 12:49:05;;;;;;;2.43;2.23;;;17.80;99.90;;;;;;4975430;28;20537;-85
2021/08/22 13:53:23;;;;;;;4.73;4.07;;;17.40;99.90;;;;;;4739523;30;20467;-86
2021/08/22 13:55:50;;;;;;;3.57;3.27;;;17.50;99.90;;;;;;4814603;29;20562;-84
2021/08/22 13:58:16;;;;;;;3.83;3.40;;;17.40;99.90;;;;;;4898645;29;20482;-84
2021/08/22 14:00:58;;;;;;;2.83;2.63;;;17.40;99.90;;;;;;4954611;29;20451;-84
2021/08/22 14:03:25;;;;;;;2.83;2.23;;;17.50;99.90;;;;;;4953304;29;20459;-85
2021/08/22 14:05:52;;;;;;;3.40;3.20;;;17.50;99.90;;;;;;4954155;29;20541;-84
2021/08/22 14:08:20;;;;;;;2.70;2.50;;;17.40;99.90;;;;;;4954063;29;20490;-84
2021/08/22 14:10:47;;;;;;;3.70;2.73;;;17.30;99.90;;;;;;4954023;29;20815;-85
2021/08/22 14:13:14;;;;;;;3.43;3.13;;;17.50;99.90;;;;;;4952899;28;20463;-86
2021/08/22 14:15:40;;;;;;;2.57;2.37;;;17.50;99.90;;;;;;4953803;29;20466;-86
2021/08/22 14:18:07;;;;;;;1.70;1.60;;;17.60;99.90;;;;;;4953896;29;20482;-88
2021/08/22 14:20:34;;;;;;;2.43;2.23;;;17.70;99.90;;;;;;4954377;29;20459;-89
2021/08/22 14:23:01;;;;;;;4.40;3.30;;;17.80;99.90;;;;;;4953604;29;20482;-86
2021/08/22 14:25:29;;;;;;;2.70;2.50;;;18.00;99.90;;;;;;4954256;29;20463;-86
2021/08/22 14:28:31;;;;;;;2.30;2.10;;;18.10;99.90;;;;;;4954138;29;20506;-86
2021/08/22 14:31:00;;;;;;;5.20;4.70;;;18.20;99.90;;;;;;4950651;29;20471;-85
2021/08/22 14:33:32;;;;;;;3.47;3.17;;;18.30;99.90;;;;;;4953524;29;20453;-85
2021/08/22 14:35:59;;;;;;;2.50;2.30;;;18.50;99.90;;;;;;4954187;29;20460;-85
2021/08/22 14:38:31;;;;;;;3.40;3.07;;;18.60;99.90;;;;;;4953781;29;20478;-86
2021/08/22 14:40:59;;;;;;;2.90;2.70;;;18.70;99.90;;;;;;4955877;29;20451;-85
2021/08/22 14:43:27;;;;;;;2.47;2.10;;;18.60;99.90;;;;;;4954130;29;20457;-85
2021/08/22 14:45:54;;;;;;;2.93;2.30;;;18.70;99.90;;;;;;4955364;29;20451;-86
2021/08/22 14:48:21;;;;;;;2.30;1.90;;;18.80;99.90;;;;;;4957955;29;20511;-85
2021/08/22 14:50:48;;;;;;;2.40;2.17;;;18.80;99.90;;;;;;4954873;29;20519;-86
2021/08/22 14:53:15;;;;;;;2.90;2.70;;;18.90;99.90;;;;;;4954591;29;20451;-85
2021/08/22 14:55:42;;;;;;;3.00;2.67;;;19.00;99.90;;;;;;4954385;29;20470;-85
2021/08/22 14:58:12;;;;;;;2.80;2.60;;;19.20;99.90;;;;;;4954137;29;20472;-87
2021/08/22 15:00:39;;;;;;;2.80;2.60;;;19.20;99.90;;;;;;4955734;29;20959;-86
2021/08/22 15:03:06;;;;;;;2.70;2.50;;;19.20;99.90;;;;;;4954581;29;20453;-87
2021/08/22 15:05:33;;;;;;;2.30;2.10;;;19.30;99.90;;;;;;4953747;29;20457;-87
2021/08/22 15:07:59;;;;;;;2.53;2.10;;;19.30;99.90;;;;;;4953423;28;20504;-86
2021/08/22 15:10:26;;;;;;;2.70;2.13;;;19.40;99.90;;;;;;4962054;28;20457;-87
2021/08/22 15:12:53;;;;;;;2.00;1.80;;;19.50;99.90;;;;;;4963375;28;20454;-85
2021/08/22 15:15:25;;;;;;;2.30;2.10;;;19.60;99.90;;;;;;4953922;28;20457;-88
2021/08/22 15:17:52;;;;;;;1.63;1.53;;;19.60;99.90;;;;;;4953526;28;20553;-87
2021/08/22 15:20:21;;;;;;;2.43;2.23;;;19.60;99.90;;;;;;4953421;28;20973;-89
2021/08/22 15:22:48;;;;;;;2.67;2.40;;;19.60;99.90;;;;;;4953044;28;20471;-88
2021/08/22 15:25:17;;;;;;;4.00;2.60;;;19.50;99.90;;;;;;4954844;28;20474;-88
2021/08/22 15:27:44;;;;;;;2.33;2.13;;;19.50;99.90;;;;;;4949453;29;20991;-88
2021/08/22 15:30:17;;;;;;;2.30;2.10;;;19.50;99.90;;;;;;4957065;28;20479;-88
2021/08/22 15:32:48;;;;;;;2.20;2.00;;;19.50;99.90;;;;;;4956566;29;20816;-88
2021/08/22 15:35:15;;;;;;;1.90;1.80;;;19.50;99.90;;;;;;4956772;28;20475;-88
2021/08/22 15:37:44;;;;;;;2.60;2.07;;;19.50;99.90;;;;;;4956971;28;20481;-88
2021/08/22 15:40:14;;;;;;;2.40;2.20;;;19.50;99.90;;;;;;4957186;28;20532;-87
2021/08/22 15:42:43;;;;;;;2.50;2.40;;;19.40;99.90;;;;;;4956172;28;20461;-87
2021/08/22 15:45:11;;;;;;;4.33;3.00;;;19.40;99.90;;;;;;4956691;28;20800;-86
2021/08/22 15:47:40;;;;;;;13.20;9.00;;;19.40;99.90;;;;;;4956205;29;20525;-87
2021/08/22 15:50:09;;;;;;;7.73;2.63;;;19.00;99.90;;;;;;4956467;29;20460;-89
2021/08/22 15:52:42;;;;;;;2.83;2.60;;;18.80;99.90;;;;;;4955644;28;20459;-89
2021/08/22 15:55:10;;;;;;;3.13;2.00;;;18.20;99.90;;;;;;4956669;28;20587;-90
2021/08/22 15:57:38;;;;;;;1.80;1.53;;;17.70;99.90;;;;;;4956455;29;20480;-88
2021/08/22 16:00:09;;;;;;;2.90;2.47;;;17.40;99.90;;;;;;4956430;29;20471;-88
2021/08/22 16:02:36;;;;;;;5.87;5.37;;;17.20;99.90;;;;;;4955678;29;20945;-88
2021/08/22 16:05:07;;;;;;;3.33;3.13;;;16.90;99.90;;;;;;4956606;29;20461;-89
2021/08/22 16:07:35;;;;;;;3.53;2.10;;;16.80;99.90;;;;;;4956369;29;20517;-89
2021/08/22 16:10:02;;;;;;;3.27;2.97;;;16.60;99.90;;;;;;4956545;29;20448;-89
2021/08/22 16:12:32;;;;;;;2.83;2.10;;;16.60;99.90;;;;;;4955943;28;20469;-89
2021/08/22 16:14:59;;;;;;;4.03;3.63;;;16.60;99.90;;;;;;4956336;28;20515;-89
2021/08/22 16:17:26;;;;;;;2.47;1.93;;;16.40;99.90;;;;;;4955923;28;20458;-88
2021/08/22 16:19:53;;;;;;;5.67;3.53;;;16.30;99.90;;;;;;4955890;29;20961;-88
2021/08/22 16:22:21;;;;;;;2.70;2.20;;;16.30;99.90;;;;;;4956071;28;20457;-88
2021/08/22 16:24:50;;;;;;;2.60;2.27;;;16.20;99.90;;;;;;4956210;29;20466;-88
2021/08/22 16:27:21;;;;;;;1.80;1.70;;;16.20;99.90;;;;;;4956019;28;20526;-89
2021/08/22 16:29:48;;;;;;;2.50;2.30;;;16.00;99.90;;;;;;4949105;29;20528;-88
2021/08/22 16:32:17;;;;;;;2.27;1.87;;;16.00;99.90;;;;;;4955188;28;20468;-88
2021/08/22 16:34:44;;;;;;;3.33;2.50;;;16.10;99.90;;;;;;4955775;29;20465;-88
2021/08/22 16:37:11;;;;;;;2.87;2.47;;;16.00;99.90;;;;;;4955467;28;20460;-88
2021/08/22 16:39:37;;;;;;;2.47;1.80;;;16.00;99.90;;;;;;4955997;29;20463;-88
2021/08/22 16:42:06;;;;;;;3.83;2.10;;;16.00;99.90;;;;;;4955021;28;20462;-87
2021/08/22 16:44:33;;;;;;;3.77;2.70;;;16.10;99.90;;;;;;4955560;28;20828;-88
2021/08/22 16:47:00;;;;;;;3.00;2.57;;;16.10;99.90;;;;;;4955284;29;20458;-88
2021/08/22 16:49:26;;;;;;;2.50;2.30;;;16.30;99.90;;;;;;4955185;29;20473;-88
2021/08/22 16:51:53;;;;;;;2.50;2.30;;;16.40;99.90;;;;;;4954702;28;20537;-87
2021/08/22 16:54:20;;;;;;;3.77;2.63;;;16.40;99.90;;;;;;4955469;29;20455;-87
2021/08/22 16:56:47;;;;;;;2.77;2.60;;;16.50;99.90;;;;;;4955016;28;20467;-87
2021/08/22 16:59:15;;;;;;;3.43;1.90;;;16.50;99.90;;;;;;4955130;29;20485;-87
2021/08/22 17:01:42;;;;;;;2.80;1.87;;;16.60;99.90;;;;;;4954504;28;20803;-87
2021/08/22 17:04:09;;;;;;;1.53;1.43;;;16.80;99.90;;;;;;4953663;29;20462;-87
2021/08/22 17:06:36;;;;;;;2.43;2.20;;;17.00;99.90;;;;;;4955496;29;20456;-86
2021/08/22 17:09:04;;;;;;;2.60;2.40;;;17.30;99.90;;;;;;4967079;28;20491;-88
2021/08/22 17:11:30;;;;;;;3.67;1.97;;;17.60;99.90;;;;;;4959629;28;20459;-88
2021/08/22 17:13:57;;;;;;;3.03;2.20;;;18.00;99.90;;;;;;4961154;28;20814;-88
2021/08/22 17:16:25;;;;;;;2.30;1.60;;;18.50;99.90;;;;;;4974343;28;20455;-87
2021/08/22 17:18:52;;;;;;;1.40;1.30;;;18.90;99.90;;;;;;4972063;28;20481;-87
2021/08/22 17:21:19;;;;;;;2.83;2.30;;;19.20;99.90;;;;;;4963621;28;20459;-87
2021/08/22 17:23:46;;;;;;;1.97;1.77;;;19.40;99.90;;;;;;4961216;28;20460;-87
2021/08/22 17:26:13;;;;;;;1.90;1.60;;;19.80;99.90;;;;;;4959802;28;20930;-86
2021/08/22 17:28:40;;;;;;;2.37;2.23;;;20.20;99.90;;;;;;4954742;28;20494;-86
2021/08/22 17:31:07;;;;;;;1.90;1.70;;;20.40;99.90;;;;;;4953826;28;20453;-87
2021/08/22 17:33:36;;;;;;;1.90;1.60;;;21.00;99.90;;;;;;4954030;28;20455;-86
2021/08/22 17:36:03;;;;;;;1.87;1.77;;;21.30;99.90;;;;;;4954572;28;20830;-87
2021/08/22 17:38:30;;;;;;;2.53;2.40;;;21.40;99.90;;;;;;4954640;28;20559;-87
2021/08/22 17:40:57;;;;;;;2.37;1.60;;;21.40;99.90;;;;;;4954582;29;20464;-86
2021/08/22 17:43:25;;;;;;;2.27;2.17;;;21.40;99.90;;;;;;4953842;28;20522;-86
2021/08/22 17:45:52;;;;;;;1.50;1.40;;;21.10;99.90;;;;;;4953985;28;20464;-86
2021/08/22 17:48:19;;;;;;;2.20;1.63;;;20.70;99.90;;;;;;4953310;28;20499;-86
2021/08/22 17:50:47;;;;;;;1.60;1.50;;;20.40;99.90;;;;;;4954025;28;20468;-86
2021/08/22 17:53:15;;;;;;;2.07;1.87;;;19.90;99.90;;;;;;4953318;29;20453;-86
2021/08/22 17:55:42;;;;;;;2.00;1.90;;;19.60;99.90;;;;;;4953934;28;20464;-86
2021/08/22 17:58:09;;;;;;;2.20;2.00;;;19.20;99.90;;;;;;4953960;29;20483;-86
2021/08/22 18:00:36;;;;;;;2.23;2.03;;;18.90;99.90;;;;;;4953814;28;20460;-86
2021/08/22 18:03:06;;;;;;;3.30;2.70;;;18.70;99.90;;;;;;4953492;28;20497;-87
2021/08/22 18:05:32;;;;;;;2.77;2.47;;;18.60;99.90;;;;;;4953931;28;20955;-86
2021/08/22 18:08:01;;;;;;;2.70;2.23;;;18.50;99.90;;;;;;4953849;28;20499;-86
2021/08/22 18:10:28;;;;;;;2.90;2.60;;;18.20;99.90;;;;;;4953786;28;20461;-86
2021/08/22 18:12:55;;;;;;;3.10;2.80;;;18.10;99.90;;;;;;4952995;29;20456;-86
2021/08/22 18:15:21;;;;;;;3.20;2.90;;;17.90;99.90;;;;;;4953528;29;20543;-86
2021/08/22 18:17:50;;;;;;;2.47;2.27;;;17.80;99.90;;;;;;4953863;28;20475;-86
2021/08/22 18:20:17;;;;;;;3.03;2.63;;;17.70;99.90;;;;;;4953836;29;20456;-86
2021/08/22 18:22:44;;;;;;;2.80;2.60;;;17.60;99.90;;;;;;4953512;28;20463;-87
2021/08/22 18:25:13;;;;;;;3.10;2.87;;;17.50;99.90;;;;;;4953622;28;20451;-86
2021/08/22 18:27:43;;;;;;;4.07;3.47;;;17.40;99.90;;;;;;4954098;29;21011;-86
2021/08/22 18:30:11;;;;;;;2.93;2.70;;;17.30;99.90;;;;;;4952909;28;20978;-87
2021/08/22 18:32:40;;;;;;;3.00;2.80;;;17.30;99.90;;;;;;4957438;28;20462;-86
2021/08/22 18:35:08;;;;;;;3.83;3.13;;;17.20;99.90;;;;;;4955958;29;20830;-86
2021/08/22 18:37:36;;;;;;;3.73;3.43;;;17.10;99.90;;;;;;4959237;29;20485;-86
2021/08/22 18:40:03;;;;;;;6.40;3.27;;;17.10;99.90;;;;;;4961454;28;20453;-86
2021/08/22 18:42:32;;;;;;;5.10;4.70;;;17.00;99.90;;;;;;4961321;28;20447;-86
2021/08/22 18:44:58;;;;;;;4.13;3.73;;;16.90;99.90;;;;;;4957547;28;20463;-86
2021/08/22 18:47:25;;;;;;;4.13;3.73;;;16.90;99.90;;;;;;4962126;28;20454;-86
2021/08/22 18:49:52;;;;;;;3.70;3.40;;;16.80;99.90;;;;;;4961351;29;20451;-85
2021/08/22 18:52:19;;;;;;;4.90;4.20;;;16.70;99.90;;;;;;4960793;29;20453;-86
2021/08/22 18:54:46;;;;;;;6.77;4.73;;;16.60;99.90;;;;;;4961401;28;20945;-86
2021/08/22 18:57:13;;;;;;;4.20;3.90;;;16.60;99.90;;;;;;4969975;29;20460;-85
2021/08/22 18:59:41;;;;;;;4.20;3.87;;;16.60;99.90;;;;;;4967446;28;20450;-87
2021/08/22 19:02:08;;;;;;;4.23;3.93;;;16.50;99.90;;;;;;4968559;28;20828;-86
2021/08/22 19:04:35;;;;;;;4.60;4.20;;;16.40;99.90;;;;;;4970263;28;20472;-86
2021/08/22 19:07:02;;;;;;;10.23;5.20;;;16.40;99.90;;;;;;4958649;28;20450;-89
2021/08/22 19:09:28;;;;;;;4.20;3.90;;;16.30;99.90;;;;;;4956954;29;20497;-85
2021/08/22 19:19:10;;;;;;;5.03;4.60;;;16.00;99.90;;;;;;4872234;29;20555;-85
2021/08/22 19:21:39;;;;;;;6.83;5.03;;;15.90;99.90;;;;;;4960103;28;20478;-87
2021/08/22 19:24:06;;;;;;;5.73;5.23;;;15.90;99.90;;;;;;4966047;28;20449;-87
2021/08/22 19:26:33;;;;;;;4.97;4.57;;;15.90;99.90;;;;;;4969867;28;20448;-87
2021/08/22 19:29:00;;;;;;;6.10;4.83;;;15.80;99.90;;;;;;4968291;28;20998;-88
2021/08/22 19:31:26;;;;;;;5.63;4.87;;;15.80;99.90;;;;;;4976302;28;20448;-87
2021/08/22 19:33:53;;;;;;;4.60;4.20;;;15.70;99.90;;;;;;4976520;28;20842;-87
2021/08/22 19:36:21;;;;;;;5.57;5.17;;;15.70;99.90;;;;;;4976854;28;20465;-87
2021/08/22 19:38:48;;;;;;;4.57;4.17;;;15.60;99.90;;;;;;4976448;28;20478;-87
2021/08/22 19:41:15;;;;;;;5.27;4.80;;;15.50;99.90;;;;;;4976382;28;20462;-87
2021/08/22 19:43:41;;;;;;;5.33;4.83;;;15.40;99.90;;;;;;4976226;28;20457;-87
2021/08/22 19:46:08;;;;;;;6.87;4.33;;;15.50;99.90;;;;;;4976910;28;20452;-87
2021/08/22 19:48:35;;;;;;;5.00;4.57;;;15.50;99.90;;;;;;4977013;28;20497;-87
2021/08/22 19:51:02;;;;;;;5.07;4.63;;;15.50;99.90;;;;;;4979450;28;20965;-86
2021/08/22 19:53:30;;;;;;;6.67;5.97;;;15.40;99.90;;;;;;4979720;28;20451;-87
2021/08/22 19:55:57;;;;;;;5.73;5.17;;;15.40;99.90;;;;;;4978430;28;20459;-86
2021/08/22 19:58:23;;;;;;;5.50;5.00;;;15.30;99.90;;;;;;4978309;28;20483;-87
2021/08/22 20:00:50;;;;;;;5.83;5.23;;;15.30;99.90;;;;;;4979151;28;20464;-86